Time;durP1;ratioP1;P1;durP2;ratioP2;P2;SDS_P1;SDS_P2;PMS_P1;PMS_P2;Temp;Humidity;BMP_temperature;BMP_pressure;BME280_temperature;BME280_humidity;BME280_pressure;Samples;Min_cycle;Max_cycle;Signal;HPM_P1;HPM_P2
2023/07/07 00:02:09;;;;;;;3.72;2.25;;;;;;;19.55;31.05;101507.78;4991515;28;20620;-70
2023/07/07 00:04:36;;;;;;;4.57;2.25;;;;;;;19.54;31.43;101513.53;4993673;28;20045;-70
2023/07/07 00:07:05;;;;;;;3.83;2.13;;;;;;;19.52;31.31;101515.63;5010343;28;20057;-69
2023/07/07 00:09:34;;;;;;;4.10;2.22;;;;;;;19.53;31.60;101506.25;5001843;28;20520;-70
2023/07/07 00:12:02;;;;;;;4.75;2.20;;;;;;;19.49;31.36;101510.41;4989382;28;20065;-70
2023/07/07 00:14:30;;;;;;;3.35;1.83;;;;;;;19.47;31.31;101506.94;4992934;28;20058;-68
2023/07/07 00:17:01;;;;;;;3.47;2.20;;;;;;;19.45;31.98;101504.38;5004124;28;20137;-68
2023/07/07 00:19:32;;;;;;;3.85;2.17;;;;;;;19.43;31.79;101512.00;4994277;28;20049;-71
2023/07/07 00:22:01;;;;;;;3.80;2.20;;;;;;;19.42;31.69;101507.50;4993635;28;20418;-71
2023/07/07 00:24:29;;;;;;;3.88;2.20;;;;;;;19.40;31.67;101512.34;4997679;28;20041;-68
2023/07/07 00:26:59;;;;;;;4.15;2.08;;;;;;;19.40;31.59;101517.91;4988761;28;20058;-70
2023/07/07 00:29:27;;;;;;;5.00;2.47;;;;;;;19.38;31.84;101524.69;4999171;28;20046;-70
2023/07/07 00:31:55;;;;;;;3.47;1.98;;;;;;;19.36;32.01;101518.44;5005522;28;20273;-70
2023/07/07 00:34:23;;;;;;;4.85;2.13;;;;;;;19.34;31.89;101513.06;5010742;28;20069;-70
2023/07/07 00:36:52;;;;;;;3.67;2.03;;;;;;;19.32;31.99;101506.81;4995524;28;20050;-70
2023/07/07 00:39:20;;;;;;;4.13;2.08;;;;;;;19.31;32.25;101518.94;4987482;28;20070;-70
2023/07/07 00:41:48;;;;;;;2.92;1.88;;;;;;;19.29;32.22;101515.50;4986852;28;20521;-70
2023/07/07 00:44:17;;;;;;;4.07;2.00;;;;;;;19.30;32.36;101516.34;4986737;28;20319;-70
2023/07/07 00:46:45;;;;;;;3.80;2.25;;;;;;;19.25;32.18;101512.19;4985886;28;20042;-70
2023/07/07 00:49:17;;;;;;;3.50;2.00;;;;;;;19.25;32.31;101514.97;4994728;28;20109;-70
2023/07/07 00:51:51;;;;;;;3.40;1.80;;;;;;;19.22;32.48;101523.63;4994216;28;20046;-70
2023/07/07 00:54:24;;;;;;;4.53;2.30;;;;;;;19.19;32.68;101515.66;5005480;28;20046;-70
2023/07/07 00:56:55;;;;;;;3.75;2.10;;;;;;;19.16;32.88;101512.34;4985197;28;20089;-70
2023/07/07 00:59:28;;;;;;;3.25;1.65;;;;;;;19.14;32.87;101514.41;4985366;28;20037;-69
2023/07/07 01:01:59;;;;;;;3.40;1.90;;;;;;;19.11;32.46;101512.88;4985825;28;20054;-69
2023/07/07 01:04:29;;;;;;;3.45;1.75;;;;;;;19.09;32.73;101516.88;5007740;28;20046;-69
2023/07/07 01:07:01;;;;;;;4.35;2.10;;;;;;;19.07;32.92;101517.03;5008916;28;20083;-68
2023/07/07 01:09:29;;;;;;;3.95;2.10;;;;;;;19.03;33.10;101520.34;5007652;28;20064;-69
2023/07/07 01:11:58;;;;;;;4.38;2.05;;;;;;;19.03;32.99;101520.34;4988306;28;20121;-69
2023/07/07 01:14:30;;;;;;;4.22;2.00;;;;;;;19.04;32.92;101522.09;4988646;28;20505;-68
2023/07/07 01:17:13;;;;;;;3.60;2.05;;;;;;;19.03;33.26;101514.78;5010330;28;20049;-69
2023/07/07 01:20:12;;;;;;;2.80;1.60;;;;;;;19.00;33.29;101516.00;4982456;28;20441;-69
2023/07/07 01:23:14;;;;;;;3.72;1.73;;;;;;;18.97;33.48;101518.25;5008897;28;20445;-69
2023/07/07 01:25:59;;;;;;;3.53;1.85;;;;;;;18.97;33.76;101512.69;4967450;28;20051;-69
2023/07/07 01:28:48;;;;;;;4.55;1.90;;;;;;;18.95;33.59;101512.91;4998460;28;20046;-68
2023/07/07 01:31:20;;;;;;;3.40;1.75;;;;;;;18.93;33.41;101517.75;4982251;28;20038;-69
2023/07/07 01:33:49;;;;;;;4.72;2.20;;;;;;;18.88;33.37;101520.19;4985737;28;20116;-69
2023/07/07 01:36:18;;;;;;;3.88;1.90;;;;;;;18.87;33.27;101521.22;4999271;28;20457;-69
2023/07/07 01:38:48;;;;;;;3.53;1.90;;;;;;;18.86;33.38;101523.13;4982627;28;20519;-69
2023/07/07 01:41:26;;;;;;;3.73;2.00;;;;;;;18.84;33.82;101519.66;4995894;28;20058;-69
2023/07/07 01:44:00;;;;;;;4.10;1.98;;;;;;;18.82;33.71;101524.50;4983846;28;20268;-69
2023/07/07 01:46:31;;;;;;;4.38;1.98;;;;;;;18.81;33.57;101524.66;4997499;28;20144;-69
2023/07/07 01:49:09;;;;;;;4.55;2.00;;;;;;;18.80;33.84;101532.09;4999600;28;20046;-69
2023/07/07 01:51:43;;;;;;;4.13;2.03;;;;;;;18.77;33.92;101521.38;4999292;28;20433;-69
2023/07/07 01:54:14;;;;;;;3.97;2.30;;;;;;;18.75;33.46;101528.13;4983468;28;20060;-68
2023/07/07 01:56:45;;;;;;;3.92;1.92;;;;;;;18.73;33.39;101527.41;4999517;28;20137;-69
2023/07/07 01:59:15;;;;;;;3.55;2.15;;;;;;;18.70;33.25;101525.88;4996251;28;20050;-68
2023/07/07 02:01:45;;;;;;;3.35;1.88;;;;;;;18.68;33.08;101516.84;4998784;28;20077;-69
2023/07/07 02:04:13;;;;;;;4.05;2.08;;;;;;;18.64;33.30;101518.22;4986432;28;20117;-69
2023/07/07 02:06:42;;;;;;;3.58;1.90;;;;;;;18.63;33.23;101519.28;4986421;28;20372;-68
2023/07/07 02:09:10;;;;;;;3.20;1.92;;;;;;;18.62;33.41;101530.53;4984414;28;20409;-67
2023/07/07 02:11:38;;;;;;;3.80;2.17;;;;;;;18.62;33.37;101522.22;4984600;28;20069;-67
2023/07/07 02:14:06;;;;;;;4.03;1.80;;;;;;;18.61;33.14;101523.25;4996620;28;20046;-66
2023/07/07 02:16:34;;;;;;;4.65;2.25;;;;;;;18.59;33.43;101534.50;4979303;28;20808;-67
2023/07/07 02:19:03;;;;;;;4.55;2.17;;;;;;;18.60;33.42;101533.47;4983365;28;20104;-67
2023/07/07 02:21:31;;;;;;;3.53;1.92;;;;;;;18.57;33.21;101525.50;4988300;28;20089;-67
2023/07/07 02:23:59;;;;;;;4.38;2.00;;;;;;;18.57;33.22;101530.16;4982764;28;20379;-66
2023/07/07 02:26:26;;;;;;;3.72;1.88;;;;;;;18.55;33.35;101523.94;4983024;28;20050;-68
2023/07/07 02:28:54;;;;;;;3.30;1.98;;;;;;;18.52;33.36;101526.03;4997940;28;20101;-67
2023/07/07 02:31:24;;;;;;;4.05;2.25;;;;;;;18.50;33.43;101516.13;4982494;28;20042;-67
2023/07/07 02:33:54;;;;;;;3.75;2.28;;;;;;;18.47;33.35;101528.38;4985097;28;20038;-67
2023/07/07 02:36:24;;;;;;;3.88;2.08;;;;;;;18.45;33.12;101526.84;4982639;28;20050;-67
2023/07/07 02:38:53;;;;;;;3.95;2.38;;;;;;;18.40;33.35;101530.09;4998647;28;20050;-66
2023/07/07 02:41:22;;;;;;;3.38;1.90;;;;;;;18.37;33.64;101533.22;4984191;28;20038;-67
2023/07/07 02:43:51;;;;;;;3.20;2.00;;;;;;;18.32;33.22;101524.53;4984940;28;20171;-67
2023/07/07 02:46:22;;;;;;;4.15;2.10;;;;;;;18.30;33.49;101531.31;4999431;28;20076;-67
2023/07/07 02:48:50;;;;;;;4.20;2.33;;;;;;;18.26;33.43;101530.75;4979482;28;20065;-67
2023/07/07 02:51:18;;;;;;;3.80;2.10;;;;;;;18.24;33.71;101530.06;4984642;28;20042;-67
2023/07/07 02:53:47;;;;;;;4.20;2.22;;;;;;;18.22;33.74;101531.28;5001044;28;20137;-66
2023/07/07 02:56:15;;;;;;;5.47;2.40;;;;;;;18.17;33.64;101531.78;4990185;28;20165;-67
2023/07/07 02:58:43;;;;;;;4.50;2.20;;;;;;;18.13;33.39;101522.94;4976036;28;20101;-66
2023/07/07 03:01:13;;;;;;;4.25;2.30;;;;;;;18.12;33.56;101526.75;5003566;28;20052;-66
2023/07/07 03:03:45;;;;;;;4.03;2.05;;;;;;;18.10;33.63;101528.81;5007665;28;20497;-67
2023/07/07 03:06:16;;;;;;;4.10;2.28;;;;;;;18.07;34.12;101528.25;5014531;28;20062;-67
2023/07/07 03:08:44;;;;;;;3.97;2.30;;;;;;;18.04;33.90;101536.94;5022867;28;20116;-67
2023/07/07 03:11:18;;;;;;;4.80;2.05;;;;;;;18.05;34.14;101538.66;5025431;28;20412;-67
2023/07/07 03:13:47;;;;;;;3.35;1.95;;;;;;;18.00;34.20;101532.75;5004546;28;20053;-67
2023/07/07 03:16:20;;;;;;;3.90;2.00;;;;;;;18.02;34.03;101537.09;5024827;28;20038;-67
2023/07/07 03:18:58;;;;;;;3.92;2.28;;;;;;;18.01;33.73;101534.47;5009195;28;20103;-68
2023/07/07 03:21:27;;;;;;;4.18;2.20;;;;;;;17.98;33.87;101535.66;5002633;28;20042;-66
2023/07/07 03:24:04;;;;;;;4.57;2.22;;;;;;;17.96;34.31;101539.66;5023260;28;20509;-68
2023/07/07 03:26:34;;;;;;;3.55;2.13;;;;;;;17.97;34.03;101542.28;5020840;28;20080;-67
2023/07/07 03:29:04;;;;;;;3.90;2.05;;;;;;;17.92;34.20;101541.00;5018553;28;20088;-67
2023/07/07 03:31:35;;;;;;;4.18;2.10;;;;;;;17.93;33.89;101540.00;5012443;28;20057;-67
2023/07/07 03:34:05;;;;;;;3.58;2.13;;;;;;;17.94;34.36;101541.72;5020859;28;20096;-68
2023/07/07 03:36:38;;;;;;;3.53;2.10;;;;;;;17.92;34.24;101539.13;5003930;28;20045;-66
2023/07/07 03:39:07;;;;;;;4.45;2.30;;;;;;;17.91;34.42;101550.34;5022485;28;20049;-67
2023/07/07 03:41:37;;;;;;;3.65;1.95;;;;;;;17.91;34.28;101548.44;5013073;28;20058;-68
2023/07/07 03:44:07;;;;;;;4.55;2.35;;;;;;;17.89;34.36;101552.44;5024474;28;20084;-67
2023/07/07 03:46:36;;;;;;;5.47;2.60;;;;;;;17.86;34.19;101550.00;5020654;28;20104;-67
2023/07/07 03:49:04;;;;;;;5.57;2.65;;;;;;;17.84;34.14;101557.59;5003690;28;20077;-67
2023/07/07 03:51:37;;;;;;;3.85;2.17;;;;;;;17.80;34.10;101550.66;5002695;28;20049;-67
2023/07/07 03:54:08;;;;;;;4.95;2.20;;;;;;;17.77;34.05;101547.19;5019981;28;20095;-67
2023/07/07 03:56:38;;;;;;;4.57;2.13;;;;;;;17.77;34.56;101565.69;5019051;28;20247;-67
2023/07/07 03:59:06;;;;;;;4.07;2.35;;;;;;;17.72;34.15;101560.63;5007970;28;20080;-68
2023/07/07 04:01:34;;;;;;;3.97;2.20;;;;;;;17.70;34.36;101565.47;5018135;28;20120;-67
2023/07/07 04:04:02;;;;;;;4.03;2.80;;;;;;;17.69;34.41;101557.31;5007794;28;20042;-68
2023/07/07 04:06:35;;;;;;;4.20;2.10;;;;;;;17.66;34.50;101555.72;5016750;28;20088;-67
2023/07/07 04:09:03;;;;;;;4.15;2.28;;;;;;;17.66;34.64;101568.69;5002727;28;20052;-67
2023/07/07 04:11:32;;;;;;;4.15;2.22;;;;;;;17.64;34.98;101563.34;5021758;28;20716;-67
2023/07/07 04:14:01;;;;;;;4.35;2.38;;;;;;;17.64;34.94;101568.03;5011115;28;20412;-67
2023/07/07 04:16:29;;;;;;;3.85;1.90;;;;;;;17.61;35.03;101565.56;5008251;28;20448;-67
2023/07/07 04:18:57;;;;;;;4.13;2.15;;;;;;;17.60;34.83;101561.06;5022718;28;20041;-67
2023/07/07 04:21:27;;;;;;;4.03;2.10;;;;;;;17.60;35.24;101561.06;5019950;28;20099;-67
2023/07/07 04:23:57;;;;;;;3.97;2.17;;;;;;;17.59;35.12;101559.31;5009693;28;20064;-67
2023/07/07 04:26:27;;;;;;;3.80;2.10;;;;;;;17.59;35.41;101562.94;5006014;28;20080;-67
2023/07/07 04:28:55;;;;;;;4.15;1.90;;;;;;;17.59;35.41;101573.16;5023107;28;20077;-67
2023/07/07 04:31:25;;;;;;;3.75;2.22;;;;;;;17.59;35.58;101562.09;5011313;28;20419;-67
2023/07/07 04:33:54;;;;;;;5.35;2.45;;;;;;;17.56;35.46;101556.91;5008676;28;20131;-67
2023/07/07 04:36:22;;;;;;;4.32;2.47;;;;;;;17.56;35.37;101566.06;5003066;28;20070;-66
2023/07/07 04:38:50;;;;;;;4.20;2.40;;;;;;;17.56;35.22;101566.06;5019122;28;20285;-67
2023/07/07 04:41:20;;;;;;;4.03;2.30;;;;;;;17.58;35.52;101565.88;5006963;28;20577;-67
2023/07/07 04:43:51;;;;;;;4.40;2.33;;;;;;;17.57;35.62;101565.00;5003670;28;20109;-67
2023/07/07 04:46:20;;;;;;;3.58;2.20;;;;;;;17.56;35.74;101562.44;5001245;28;20075;-70
2023/07/07 04:48:50;;;;;;;4.28;2.53;;;;;;;17.58;35.60;101568.66;5006580;28;20568;-67
2023/07/07 04:51:19;;;;;;;4.28;2.35;;;;;;;17.54;35.55;101565.34;4996669;28;20614;-67
2023/07/07 04:53:47;;;;;;;3.90;2.13;;;;;;;17.52;35.52;101561.88;4991633;28;20080;-67
2023/07/07 04:56:18;;;;;;;4.90;2.20;;;;;;;17.53;35.48;101562.75;4992731;28;20290;-68
2023/07/07 04:58:49;;;;;;;3.70;2.28;;;;;;;17.51;35.49;101568.44;4990773;28;20501;-68
2023/07/07 05:01:19;;;;;;;4.63;2.15;;;;;;;17.51;35.50;101564.78;4989679;28;20124;-68
2023/07/07 05:03:52;;;;;;;3.72;2.38;;;;;;;17.51;35.38;101567.56;5009798;28;20726;-70
2023/07/07 05:06:20;;;;;;;3.40;2.28;;;;;;;17.46;35.45;101564.44;5011539;28;20045;-68
2023/07/07 05:08:49;;;;;;;4.57;2.40;;;;;;;17.48;35.88;101565.16;4990383;28;20096;-68
2023/07/07 05:11:20;;;;;;;4.10;2.30;;;;;;;17.49;35.74;101573.25;4991788;28;20088;-68
2023/07/07 05:13:49;;;;;;;4.65;2.45;;;;;;;17.51;35.73;101573.97;4994587;28;20449;-68
2023/07/07 05:16:19;;;;;;;4.28;2.20;;;;;;;17.56;35.95;101570.72;4997807;28;20428;-67
2023/07/07 05:18:47;;;;;;;3.47;2.08;;;;;;;17.59;35.76;101570.38;5019846;28;20827;-67
2023/07/07 05:21:19;;;;;;;4.60;2.20;;;;;;;17.68;35.85;101569.41;5004996;28;20056;-67
2023/07/07 05:23:47;;;;;;;4.03;2.13;;;;;;;17.74;36.09;101566.00;5004323;28;20559;-67
2023/07/07 05:26:15;;;;;;;4.30;2.30;;;;;;;17.82;36.16;101562.41;4997760;28;20074;-67
2023/07/07 05:28:43;;;;;;;4.03;2.50;;;;;;;17.91;36.18;101565.06;4996179;28;20152;-67
2023/07/07 05:31:11;;;;;;;4.60;2.40;;;;;;;18.03;36.07;101565.66;4999038;28;20045;-70
2023/07/07 05:33:39;;;;;;;3.65;2.20;;;;;;;18.16;35.77;101557.75;5000281;28;20493;-69
2023/07/07 05:36:09;;;;;;;3.60;2.22;;;;;;;18.28;35.85;101561.94;5003369;28;20062;-70
2023/07/07 05:38:41;;;;;;;3.58;2.15;;;;;;;18.44;35.44;101570.31;5004673;28;20490;-70
2023/07/07 05:41:10;;;;;;;3.70;2.10;;;;;;;18.54;35.71;101572.97;5004258;28;20386;-70
2023/07/07 05:43:38;;;;;;;3.53;2.08;;;;;;;18.69;35.63;101571.28;4999452;28;20058;-69
2023/07/07 05:46:08;;;;;;;4.50;2.10;;;;;;;18.85;35.55;101576.84;5018396;28;20046;-71
2023/07/07 05:48:37;;;;;;;3.75;1.90;;;;;;;18.97;35.16;101576.50;5016851;28;20074;-70
2023/07/07 05:51:06;;;;;;;4.05;2.08;;;;;;;19.11;34.97;101579.47;5003361;28;20073;-69
2023/07/07 05:53:36;;;;;;;4.18;2.20;;;;;;;19.23;34.68;101578.09;5020689;28;20476;-70
2023/07/07 05:56:10;;;;;;;4.18;2.05;;;;;;;19.38;34.20;101581.03;5004358;28;20041;-70
2023/07/07 05:58:38;;;;;;;3.25;1.83;;;;;;;19.47;34.26;101568.03;5014000;28;20054;-69
2023/07/07 06:01:13;;;;;;;3.40;1.90;;;;;;;19.58;34.34;101568.53;5002556;28;20104;-70
2023/07/07 06:03:42;;;;;;;4.00;1.87;;;;;;;19.72;34.31;101577.16;5003534;28;20045;-70
2023/07/07 06:06:11;;;;;;;3.90;2.05;;;;;;;19.84;33.81;101567.44;5019117;28;20045;-70
2023/07/07 06:08:40;;;;;;;4.28;2.17;;;;;;;19.96;33.83;101574.34;5001594;28;20446;-70
2023/07/07 06:11:09;;;;;;;3.42;1.95;;;;;;;20.10;33.81;101572.75;5001173;28;20058;-70
2023/07/07 06:13:37;;;;;;;3.83;1.70;;;;;;;20.19;33.38;101568.91;4998963;28;20058;-70
2023/07/07 06:16:06;;;;;;;4.30;2.00;;;;;;;20.32;33.39;101571.97;5006272;28;20381;-70
2023/07/07 06:18:34;;;;;;;3.38;1.98;;;;;;;20.43;32.98;101568.78;5000739;28;20137;-70
2023/07/07 06:21:02;;;;;;;4.10;1.65;;;;;;;20.54;32.96;101570.25;5003618;28;20125;-70
2023/07/07 06:23:32;;;;;;;3.92;1.75;;;;;;;20.67;32.57;101578.94;5005044;28;20054;-70
2023/07/07 06:26:01;;;;;;;4.07;1.80;;;;;;;20.75;32.35;101576.97;5001308;28;20052;-70
2023/07/07 06:28:30;;;;;;;3.00;1.65;;;;;;;20.88;32.15;101575.47;5002974;28;20084;-69
2023/07/07 06:30:58;;;;;;;3.42;1.77;;;;;;;20.97;32.45;101578.00;5001928;28;20129;-70
2023/07/07 06:33:27;;;;;;;3.00;1.50;;;;;;;21.09;32.06;101584.03;5005678;28;20102;-73
2023/07/07 06:35:55;;;;;;;2.90;1.55;;;;;;;21.19;31.93;101584.63;5003386;28;20069;-72
2023/07/07 06:38:23;;;;;;;3.50;1.38;;;;;;;21.30;31.59;101589.78;5019976;28;20077;-72
2023/07/07 06:40:51;;;;;;;4.32;1.60;;;;;;;21.39;31.07;101585.88;5007616;28;20048;-71
2023/07/07 06:43:19;;;;;;;3.00;1.50;;;;;;;21.50;30.47;101590.13;5008039;28;20061;-70
2023/07/07 06:45:55;;;;;;;3.30;1.50;;;;;;;21.61;29.90;101583.22;5005195;28;20116;-72
2023/07/07 06:48:23;;;;;;;2.67;1.30;;;;;;;21.68;30.30;101590.66;5018677;28;20124;-72
2023/07/07 06:50:50;;;;;;;3.78;1.40;;;;;;;21.76;30.05;101590.56;5007651;28;20136;-71
2023/07/07 06:53:18;;;;;;;3.00;1.27;;;;;;;21.83;29.85;101588.75;5003061;28;20433;-70
2023/07/07 06:55:46;;;;;;;2.47;1.35;;;;;;;21.94;29.40;101589.34;5007281;28;20149;-59
2023/07/07 06:58:15;;;;;;;3.03;1.42;;;;;;;22.04;29.49;101587.13;5001328;28;20084;-59
2023/07/07 07:00:44;;;;;;;3.17;1.50;;;;;;;22.11;29.69;101588.09;5001960;28;20397;-60
2023/07/07 07:03:13;;;;;;;2.25;1.20;;;;;;;22.18;29.10;101589.91;5006545;28;20049;-61
2023/07/07 07:05:42;;;;;;;2.72;1.52;;;;;;;22.22;28.74;101588.47;5007471;28;20049;-60
2023/07/07 07:08:09;;;;;;;3.10;1.52;;;;;;;22.30;28.58;101593.09;5007075;28;20050;-61
2023/07/07 07:10:37;;;;;;;2.80;1.48;;;;;;;22.35;28.64;101590.56;5003958;28;20069;-61
2023/07/07 07:13:05;;;;;;;2.60;1.50;;;;;;;22.41;28.74;101592.59;5004829;28;20575;-59
2023/07/07 07:15:33;;;;;;;3.15;1.33;;;;;;;22.45;28.67;101599.50;5005302;28;20044;-59
2023/07/07 07:18:01;;;;;;;3.97;1.50;;;;;;;22.50;28.50;101602.59;5003609;28;20050;-59
2023/07/07 07:20:30;;;;;;;2.42;1.35;;;;;;;22.56;28.31;101596.25;5005634;28;20221;-60
2023/07/07 07:22:58;;;;;;;3.75;1.50;;;;;;;22.59;28.12;101598.63;5004786;28;20133;-61
2023/07/07 07:25:26;;;;;;;3.97;1.60;;;;;;;22.63;28.22;101594.41;5003453;28;20041;-61
2023/07/07 07:27:54;;;;;;;3.20;1.35;;;;;;;22.69;28.14;101598.34;5005663;28;20129;-59
2023/07/07 07:30:22;;;;;;;2.90;1.40;;;;;;;22.75;28.50;101596.69;5005541;28;20132;-60
2023/07/07 07:32:50;;;;;;;2.72;1.42;;;;;;;22.81;27.91;101599.56;5008448;28;20052;-59
2023/07/07 07:35:18;;;;;;;2.38;1.40;;;;;;;22.89;28.11;101604.16;5002496;28;20046;-61
2023/07/07 07:37:47;;;;;;;3.45;1.58;;;;;;;22.99;27.78;101601.91;5006381;28;20045;-59
2023/07/07 07:40:15;;;;;;;2.50;1.40;;;;;;;23.05;27.85;101597.44;5006392;28;20127;-60
2023/07/07 07:42:43;;;;;;;2.92;1.50;;;;;;;23.12;27.60;101609.53;5003142;28;21895;-59
2023/07/07 07:45:16;;;;;;;2.42;1.30;;;;;;;23.21;26.84;101600.88;5004082;28;20042;-60
2023/07/07 07:47:45;;;;;;;3.17;1.40;;;;;;;23.26;27.36;101609.50;5006309;28;20041;-61
2023/07/07 07:50:14;;;;;;;3.05;1.42;;;;;;;23.36;27.30;101600.78;5002134;28;20053;-60
2023/07/07 07:52:42;;;;;;;2.30;1.30;;;;;;;23.42;27.30;101597.19;5008452;28;20448;-58
2023/07/07 07:55:14;;;;;;;5.07;1.60;;;;;;;23.52;27.20;101603.31;5006574;28;20038;-60
2023/07/07 07:57:42;;;;;;;2.45;1.38;;;;;;;23.58;26.97;101602.47;5001246;28;20049;-60
2023/07/07 08:00:11;;;;;;;2.28;1.33;;;;;;;23.67;27.17;101604.06;5003285;28;20057;-60
2023/07/07 08:02:43;;;;;;;2.13;1.10;;;;;;;23.75;27.37;101603.91;5005611;28;20056;-60
2023/07/07 08:05:11;;;;;;;3.45;1.45;;;;;;;23.84;26.96;101613.03;5004732;28;20405;-59
2023/07/07 08:07:39;;;;;;;2.50;1.20;;;;;;;23.89;26.48;101610.53;5002128;28;20108;-58
2023/07/07 08:10:09;;;;;;;5.00;1.65;;;;;;;23.97;26.33;101606.69;5039646;23;20212;-60
2023/07/07 08:12:38;;;;;;;2.13;1.40;;;;;;;24.03;26.41;101611.47;5037617;28;20459;-60
2023/07/07 08:15:07;;;;;;;2.83;1.20;;;;;;;24.06;26.35;101611.06;5031112;28;20477;-59
2023/07/07 08:17:35;;;;;;;2.63;1.30;;;;;;;24.11;25.98;101606.56;5013426;28;20385;-61
2023/07/07 08:20:05;;;;;;;1.60;1.10;;;;;;;24.18;26.17;101614.13;5014715;28;20045;-59
2023/07/07 08:22:33;;;;;;;2.00;1.30;;;;;;;24.22;26.41;101616.31;5017000;28;20516;-53
2023/07/07 08:25:00;;;;;;;2.33;1.30;;;;;;;24.29;26.25;101613.56;5012717;28;20112;-61
2023/07/07 08:27:28;;;;;;;4.30;1.38;;;;;;;24.36;26.07;101608.88;5015343;28;20103;-61
2023/07/07 08:30:01;;;;;;;3.28;1.25;;;;;;;24.44;25.78;101608.72;5019990;28;20112;-61
2023/07/07 08:32:28;;;;;;;2.00;1.27;;;;;;;24.49;25.93;101609.81;5017434;28;20045;-58
2023/07/07 08:34:56;;;;;;;2.00;1.02;;;;;;;24.57;25.06;101608.75;5010440;28;20041;-57
2023/07/07 08:37:25;;;;;;;2.88;1.45;;;;;;;24.64;25.66;101618.06;5014152;28;20041;-61
2023/07/07 08:39:54;;;;;;;3.10;1.20;;;;;;;24.69;25.43;101612.69;5013907;28;20049;-60
2023/07/07 08:42:25;;;;;;;2.22;1.30;;;;;;;24.77;25.14;101606.03;5015365;28;20064;-63
2023/07/07 08:44:55;;;;;;;3.30;1.40;;;;;;;24.77;24.54;101609.72;5013975;28;20117;-60
2023/07/07 08:47:38;;;;;;;3.65;1.27;;;;;;;24.85;24.28;101606.72;5013321;28;20562;-59
2023/07/07 08:50:08;;;;;;;2.63;1.23;;;;;;;24.88;25.01;101609.09;5014815;28;20037;-57
2023/07/07 08:53:03;;;;;;;2.45;1.20;;;;;;;24.96;24.80;101610.03;5017140;28;20049;-61
2023/07/07 08:55:53;;;;;;;3.25;1.30;;;;;;;24.99;25.17;101607.63;5015237;28;20417;-62
2023/07/07 08:58:28;;;;;;;2.70;1.33;;;;;;;25.07;24.68;101600.97;5011570;28;20122;-62
2023/07/07 09:01:18;;;;;;;1.90;1.10;;;;;;;25.14;24.47;101597.09;5016768;28;20053;-61
2023/07/07 09:04:02;;;;;;;2.45;1.30;;;;;;;25.21;24.38;101598.00;5011816;28;20064;-62
2023/07/07 09:06:45;;;;;;;2.22;1.30;;;;;;;25.30;24.39;101603.41;5013169;28;20065;-62
2023/07/07 09:09:24;;;;;;;3.42;1.30;;;;;;;25.38;24.06;101594.78;5012570;28;20088;-62
2023/07/07 09:12:07;;;;;;;1.98;1.05;;;;;;;25.46;24.24;101594.56;5019889;28;20061;-61
2023/07/07 09:14:37;;;;;;;3.45;1.60;;;;;;;25.53;24.43;101596.34;5022531;28;20412;-61
2023/07/07 09:17:13;;;;;;;2.03;1.25;;;;;;;25.63;24.33;101598.72;5014814;28;20080;-63
2023/07/07 09:19:45;;;;;;;2.92;1.45;;;;;;;25.67;23.86;101596.31;5014879;28;20046;-59
2023/07/07 09:22:23;;;;;;;3.67;1.45;;;;;;;25.75;23.88;101591.34;5016476;28;20045;-62
2023/07/07 09:24:58;;;;;;;2.30;1.30;;;;;;;25.80;23.73;101585.94;5013468;28;20348;-63
2023/07/07 09:27:32;;;;;;;2.60;1.60;;;;;;;25.86;22.35;101584.22;5011740;28;20073;-62
2023/07/07 09:30:08;;;;;;;2.35;1.50;;;;;;;25.90;23.09;101599.53;5019462;28;20042;-61
2023/07/07 09:32:36;;;;;;;2.78;1.20;;;;;;;25.90;23.60;101591.97;5011624;28;20048;-63
2023/07/07 09:35:12;;;;;;;2.65;1.38;;;;;;;25.97;22.71;101589.16;5014969;28;20499;-62
2023/07/07 09:37:50;;;;;;;3.75;1.67;;;;;;;25.98;22.24;101580.53;5018349;28;20049;-62
2023/07/07 09:40:26;;;;;;;4.05;2.22;;;;;;;26.00;22.48;101581.16;5016234;28;20465;-60
2023/07/07 09:43:02;;;;;;;5.05;2.70;;;;;;;26.03;21.78;101582.69;5016101;28;20041;-64
2023/07/07 09:45:39;;;;;;;4.72;2.42;;;;;;;26.06;21.80;101579.41;5014519;28;20568;-62
2023/07/07 09:48:20;;;;;;;3.45;2.05;;;;;;;26.08;20.87;101570.81;5018415;28;20068;-64
2023/07/07 09:50:58;;;;;;;3.60;1.70;;;;;;;26.09;20.92;101576.22;5021680;28;20164;-60
2023/07/07 09:53:31;;;;;;;2.90;1.70;;;;;;;26.13;21.32;101571.91;5017521;28;20124;-62
2023/07/07 09:56:18;;;;;;;3.13;1.55;;;;;;;26.17;22.05;101578.78;5017334;28;20124;-62
2023/07/07 09:58:51;;;;;;;3.47;1.67;;;;;;;26.22;21.69;101572.50;5015216;28;20052;-63
2023/07/07 10:01:21;;;;;;;2.90;1.70;;;;;;;26.25;21.35;101575.75;5016026;28;21108;-61
2023/07/07 10:03:49;;;;;;;3.40;1.80;;;;;;;26.27;21.52;101570.78;5015811;28;20487;-63
2023/07/07 10:06:31;;;;;;;3.20;1.58;;;;;;;26.34;20.30;101568.81;5016038;28;20088;-61
2023/07/07 10:08:59;;;;;;;3.05;1.60;;;;;;;26.34;21.57;101565.13;5015385;28;20042;-64
2023/07/07 10:11:30;;;;;;;2.15;1.35;;;;;;;26.43;21.65;101571.34;5013780;28;20113;-63
2023/07/07 10:14:18;;;;;;;3.38;1.55;;;;;;;26.48;21.28;101568.72;5013687;28;20120;-65
2023/07/07 10:16:55;;;;;;;2.33;1.40;;;;;;;26.56;20.72;101558.09;5012898;28;20061;-64
2023/07/07 10:19:24;;;;;;;2.55;1.60;;;;;;;26.61;21.04;101561.16;5010580;28;20041;-63
2023/07/07 10:21:54;;;;;;;2.92;1.70;;;;;;;26.70;21.40;101567.38;5018562;28;20584;-63
2023/07/07 10:24:21;;;;;;;2.83;1.67;;;;;;;26.74;20.81;101566.69;5010081;28;20095;-64
2023/07/07 10:26:50;;;;;;;3.47;1.60;;;;;;;26.82;20.82;101562.75;5015078;28;20042;-61
2023/07/07 10:29:23;;;;;;;3.55;1.70;;;;;;;26.90;20.40;101553.19;5018830;28;20033;-62
2023/07/07 10:31:52;;;;;;;2.80;1.70;;;;;;;26.94;20.80;101548.88;5020132;28;20112;-62
2023/07/07 10:34:26;;;;;;;2.97;1.70;;;;;;;27.00;19.93;101553.56;5014560;28;20103;-64
2023/07/07 10:36:56;;;;;;;2.85;1.80;;;;;;;27.04;20.17;101550.06;5012641;28;20125;-62
2023/07/07 10:39:25;;;;;;;3.05;1.75;;;;;;;27.09;20.69;101558.69;5004907;28;20121;-65
2023/07/07 10:41:53;;;;;;;3.17;1.63;;;;;;;27.13;20.32;101565.56;5010844;28;20587;-64
2023/07/07 10:44:24;;;;;;;3.45;1.50;;;;;;;27.22;20.54;101556.88;5011449;28;20046;-64
2023/07/07 10:46:52;;;;;;;3.30;1.80;;;;;;;27.23;20.35;101555.81;5016584;28;21248;-64
2023/07/07 10:49:24;;;;;;;2.97;1.90;;;;;;;27.30;20.39;101554.66;5016383;28;20125;-64
2023/07/07 10:52:09;;;;;;;3.10;1.70;;;;;;;27.34;20.08;101552.25;5009817;28;20054;-63
2023/07/07 10:54:46;;;;;;;2.67;1.48;;;;;;;27.38;18.75;101551.56;5010161;28;20037;-61
2023/07/07 10:57:25;;;;;;;3.10;1.70;;;;;;;27.41;19.28;101541.81;5016491;28;20128;-61
2023/07/07 11:00:02;;;;;;;3.33;1.50;;;;;;;27.44;19.25;101547.00;5018846;28;20069;-71
2023/07/07 11:02:46;;;;;;;2.97;1.75;;;;;;;27.49;18.73;101558.41;5016546;28;20523;-71
2023/07/07 11:05:33;;;;;;;3.03;1.63;;;;;;;27.49;18.42;101550.81;5016611;28;20072;-71
2023/07/07 11:08:15;;;;;;;2.78;1.60;;;;;;;27.55;17.85;101549.03;5012022;28;20053;-72
2023/07/07 11:10:50;;;;;;;;;;;;;;;27.22;19.99;101545.66;5017656;28;20449;-71
2023/07/07 11:13:28;;;;;;;2.33;1.55;;;;;;;27.55;18.23;101546.22;5015892;28;19928;-72
2023/07/07 11:16:04;;;;;;;3.00;1.60;;;;;;;27.62;18.59;101540.53;5013094;28;20069;-72
2023/07/07 11:18:51;;;;;;;3.00;1.70;;;;;;;27.64;17.91;101543.97;5016416;28;20058;-71
2023/07/07 11:21:29;;;;;;;3.95;1.80;;;;;;;27.65;18.12;101538.13;5017257;28;20069;-71
2023/07/07 11:24:12;;;;;;;3.00;1.60;;;;;;;27.67;18.02;101530.31;5017971;28;20046;-71
2023/07/07 11:27:19;;;;;;;2.80;1.60;;;;;;;27.70;18.28;101529.88;5019658;28;20049;-72
2023/07/07 11:29:59;;;;;;;3.17;1.58;;;;;;;27.73;17.40;101526.59;5020482;28;20042;-72
2023/07/07 11:32:37;;;;;;;2.85;1.73;;;;;;;27.78;17.67;101517.50;5019404;28;20143;-72
2023/07/07 11:35:23;;;;;;;2.70;1.50;;;;;;;27.80;17.43;101518.09;5019465;28;20041;-72
2023/07/07 11:38:02;;;;;;;4.30;2.10;;;;;;;27.84;17.89;101513.75;5019252;28;20045;-72
2023/07/07 11:40:49;;;;;;;3.08;1.75;;;;;;;27.85;17.08;101509.84;5023403;28;20128;-72
2023/07/07 11:43:43;;;;;;;2.90;1.73;;;;;;;27.92;17.18;101523.81;5019069;28;20053;-71
2023/07/07 11:46:30;;;;;;;2.80;1.70;;;;;;;27.94;17.43;101514.06;5034676;28;20516;-71